CYCY

Clyde River Airport

Clyde River, Canada
METAR CYCY 201300Z 28011KT 25SM VCSH BKN055 M11/M13 A2963 RMK SC7 -9.0/-13.4/TR/15 TRACE LOOSE SLP037
Observed Flight Rules
Oct-20 @ 13:00 UTC (37 minutes ago) Visual Flight Rules
Wind Visibility Clouds
280° at 11 knots 25 miles
  • Broken at 5,500' AGL
Temperatures Readings
Current -11°C / 12°F
Dewpoint -13°C / 9°F
Humidity 85%
Altimeter 29.63" Hg
Pressure 1003.7 hPa
Elevation 26
METAR CYCY 201300Z 28011KT 25SM VCSH BKN055 M11/M13 A2963 RMK SC7 -9.0/-13.4/TR/15 TRACE LOOSE SLP037
Observed Flight Rules
Oct-20 @ 13:00 UTC
(37 minutes ago)
VFR
Wind Visibility
280° at 11 knots 25 miles
Clouds
  • Broken at 5,500' AGL
Temperature Dewpoint
-11°C / 12°F -13°C / 9°F
Humidity Altimeter Pressure
85% 29.63" Hg 1003.7 hPa